sensor_id;sensor_type;location;lat;lon;timestamp;temperature;humidity
70548;DHT22;58099;43.406;3.698;2023-06-24T00:02:04;24.60;91.80
70548;DHT22;58099;43.406;3.698;2023-06-24T00:04:30;24.60;91.90
70548;DHT22;58099;43.406;3.698;2023-06-24T00:06:55;24.60;91.90
70548;DHT22;58099;43.406;3.698;2023-06-24T00:09:28;24.50;91.90
70548;DHT22;58099;43.406;3.698;2023-06-24T00:11:56;24.50;91.80
70548;DHT22;58099;43.406;3.698;2023-06-24T00:14:22;24.40;92.20
70548;DHT22;58099;43.406;3.698;2023-06-24T00:16:52;24.40;92.20
70548;DHT22;58099;43.406;3.698;2023-06-24T00:19:22;24.40;92.40
70548;DHT22;58099;43.406;3.698;2023-06-24T00:21:49;24.40;92.50
70548;DHT22;58099;43.406;3.698;2023-06-24T00:24:19;24.30;92.80
70548;DHT22;58099;43.406;3.698;2023-06-24T00:26:48;24.30;92.80
70548;DHT22;58099;43.406;3.698;2023-06-24T00:29:14;24.30;92.60
70548;DHT22;58099;43.406;3.698;2023-06-24T00:31:40;24.30;92.60
70548;DHT22;58099;43.406;3.698;2023-06-24T00:34:07;24.30;92.70
70548;DHT22;58099;43.406;3.698;2023-06-24T00:36:32;24.30;92.90
70548;DHT22;58099;43.406;3.698;2023-06-24T00:39:01;24.30;92.90
70548;DHT22;58099;43.406;3.698;2023-06-24T00:41:33;24.20;92.90
70548;DHT22;58099;43.406;3.698;2023-06-24T00:43:59;24.20;93.00
70548;DHT22;58099;43.406;3.698;2023-06-24T00:46:27;24.10;92.90
70548;DHT22;58099;43.406;3.698;2023-06-24T00:48:55;24.10;92.50
70548;DHT22;58099;43.406;3.698;2023-06-24T00:51:21;24.00;92.60
70548;DHT22;58099;43.406;3.698;2023-06-24T00:53:54;23.90;92.60
70548;DHT22;58099;43.406;3.698;2023-06-24T00:56:22;23.90;92.90
70548;DHT22;58099;43.406;3.698;2023-06-24T00:58:52;23.90;92.70
70548;DHT22;58099;43.406;3.698;2023-06-24T01:01:18;23.90;92.70
70548;DHT22;58099;43.406;3.698;2023-06-24T01:03:45;23.90;92.90
70548;DHT22;58099;43.406;3.698;2023-06-24T01:06:12;23.80;93.00
70548;DHT22;58099;43.406;3.698;2023-06-24T01:08:38;23.80;92.90
70548;DHT22;58099;43.406;3.698;2023-06-24T01:11:04;23.80;92.90
70548;DHT22;58099;43.406;3.698;2023-06-24T01:13:30;23.80;92.90
70548;DHT22;58099;43.406;3.698;2023-06-24T01:15:58;23.80;92.90
70548;DHT22;58099;43.406;3.698;2023-06-24T01:18:45;23.80;92.90
70548;DHT22;58099;43.406;3.698;2023-06-24T01:32:11;23.60;93.00
70548;DHT22;58099;43.406;3.698;2023-06-24T01:34:53;23.60;93.10
70548;DHT22;58099;43.406;3.698;2023-06-24T01:37:39;23.60;92.90
70548;DHT22;58099;43.406;3.698;2023-06-24T01:40:37;23.60;92.80
70548;DHT22;58099;43.406;3.698;2023-06-24T01:43:01;23.60;92.80
70548;DHT22;58099;43.406;3.698;2023-06-24T01:45:35;23.50;92.90
70548;DHT22;58099;43.406;3.698;2023-06-24T01:51:14;23.50;93.10
70548;DHT22;58099;43.406;3.698;2023-06-24T01:53:44;23.50;93.20
70548;DHT22;58099;43.406;3.698;2023-06-24T01:56:14;23.50;93.40
70548;DHT22;58099;43.406;3.698;2023-06-24T01:58:42;23.50;93.60
70548;DHT22;58099;43.406;3.698;2023-06-24T02:01:09;23.50;93.60
70548;DHT22;58099;43.406;3.698;2023-06-24T02:03:35;23.50;93.60
70548;DHT22;58099;43.406;3.698;2023-06-24T02:06:02;23.50;93.70
70548;DHT22;58099;43.406;3.698;2023-06-24T02:08:31;23.50;93.80
70548;DHT22;58099;43.406;3.698;2023-06-24T02:10:59;23.50;93.80
70548;DHT22;58099;43.406;3.698;2023-06-24T02:13:26;23.50;93.80
70548;DHT22;58099;43.406;3.698;2023-06-24T02:15:53;23.50;93.90
70548;DHT22;58099;43.406;3.698;2023-06-24T02:18:20;23.50;93.80
70548;DHT22;58099;43.406;3.698;2023-06-24T02:20:49;23.50;93.60
70548;DHT22;58099;43.406;3.698;2023-06-24T02:23:16;23.50;93.80
70548;DHT22;58099;43.406;3.698;2023-06-24T02:25:42;23.50;93.70
70548;DHT22;58099;43.406;3.698;2023-06-24T02:28:09;23.40;93.70
70548;DHT22;58099;43.406;3.698;2023-06-24T02:30:37;23.50;93.80
70548;DHT22;58099;43.406;3.698;2023-06-24T02:33:03;23.50;93.80
70548;DHT22;58099;43.406;3.698;2023-06-24T02:35:29;23.50;93.60
70548;DHT22;58099;43.406;3.698;2023-06-24T02:37:54;23.40;93.50
70548;DHT22;58099;43.406;3.698;2023-06-24T02:40:20;23.40;93.50
70548;DHT22;58099;43.406;3.698;2023-06-24T02:42:46;23.40;93.70
70548;DHT22;58099;43.406;3.698;2023-06-24T02:45:12;23.50;93.80
70548;DHT22;58099;43.406;3.698;2023-06-24T02:47:38;23.50;93.80
70548;DHT22;58099;43.406;3.698;2023-06-24T02:50:06;23.40;94.00
70548;DHT22;58099;43.406;3.698;2023-06-24T02:52:33;23.40;94.10
70548;DHT22;58099;43.406;3.698;2023-06-24T02:55:02;23.40;94.10
70548;DHT22;58099;43.406;3.698;2023-06-24T02:57:28;23.40;94.20
70548;DHT22;58099;43.406;3.698;2023-06-24T02:59:54;23.40;94.10
70548;DHT22;58099;43.406;3.698;2023-06-24T03:02:20;23.40;94.20
70548;DHT22;58099;43.406;3.698;2023-06-24T03:04:47;23.30;94.60
70548;DHT22;58099;43.406;3.698;2023-06-24T03:07:14;23.20;94.30
70548;DHT22;58099;43.406;3.698;2023-06-24T03:09:40;23.20;94.30
70548;DHT22;58099;43.406;3.698;2023-06-24T03:12:06;23.20;94.70
70548;DHT22;58099;43.406;3.698;2023-06-24T03:14:32;23.10;94.50
70548;DHT22;58099;43.406;3.698;2023-06-24T03:16:57;23.10;94.70
70548;DHT22;58099;43.406;3.698;2023-06-24T03:19:23;23.20;94.50
70548;DHT22;58099;43.406;3.698;2023-06-24T03:21:49;23.20;94.40
70548;DHT22;58099;43.406;3.698;2023-06-24T03:24:14;23.30;94.30
70548;DHT22;58099;43.406;3.698;2023-06-24T03:26:40;23.20;94.30
70548;DHT22;58099;43.406;3.698;2023-06-24T03:29:06;23.20;94.40
70548;DHT22;58099;43.406;3.698;2023-06-24T03:31:35;23.20;94.30
70548;DHT22;58099;43.406;3.698;2023-06-24T03:34:01;23.20;94.20
70548;DHT22;58099;43.406;3.698;2023-06-24T03:36:27;23.20;94.20
70548;DHT22;58099;43.406;3.698;2023-06-24T03:38:53;23.10;94.30
70548;DHT22;58099;43.406;3.698;2023-06-24T03:41:18;23.00;94.40
70548;DHT22;58099;43.406;3.698;2023-06-24T03:43:44;23.00;94.30
70548;DHT22;58099;43.406;3.698;2023-06-24T03:46:11;22.90;94.40
70548;DHT22;58099;43.406;3.698;2023-06-24T03:48:37;22.80;94.40
70548;DHT22;58099;43.406;3.698;2023-06-24T03:51:02;22.80;94.50
70548;DHT22;58099;43.406;3.698;2023-06-24T03:53:28;22.80;94.40
70548;DHT22;58099;43.406;3.698;2023-06-24T03:55:54;22.80;94.40
70548;DHT22;58099;43.406;3.698;2023-06-24T03:58:19;22.80;94.30
70548;DHT22;58099;43.406;3.698;2023-06-24T04:00:46;22.80;94.30
70548;DHT22;58099;43.406;3.698;2023-06-24T04:03:15;22.70;94.40
70548;DHT22;58099;43.406;3.698;2023-06-24T04:05:43;22.70;94.50
70548;DHT22;58099;43.406;3.698;2023-06-24T04:08:09;22.70;94.20
70548;DHT22;58099;43.406;3.698;2023-06-24T04:10:35;22.60;94.20
70548;DHT22;58099;43.406;3.698;2023-06-24T04:13:00;22.60;94.20
70548;DHT22;58099;43.406;3.698;2023-06-24T04:15:26;22.50;94.30
70548;DHT22;58099;43.406;3.698;2023-06-24T04:17:51;22.50;94.40
70548;DHT22;58099;43.406;3.698;2023-06-24T04:20:17;22.50;94.50
70548;DHT22;58099;43.406;3.698;2023-06-24T04:22:43;22.40;94.60
70548;DHT22;58099;43.406;3.698;2023-06-24T04:25:08;22.40;94.60
70548;DHT22;58099;43.406;3.698;2023-06-24T04:27:35;22.50;95.00
70548;DHT22;58099;43.406;3.698;2023-06-24T04:30:02;22.40;94.60
70548;DHT22;58099;43.406;3.698;2023-06-24T04:32:28;22.40;94.70
70548;DHT22;58099;43.406;3.698;2023-06-24T04:34:53;22.40;94.70
70548;DHT22;58099;43.406;3.698;2023-06-24T04:37:19;22.40;94.80
70548;DHT22;58099;43.406;3.698;2023-06-24T04:39:45;22.40;94.60
70548;DHT22;58099;43.406;3.698;2023-06-24T04:42:11;22.40;94.70
70548;DHT22;58099;43.406;3.698;2023-06-24T04:44:37;22.30;94.80
70548;DHT22;58099;43.406;3.698;2023-06-24T04:47:03;22.30;94.70
70548;DHT22;58099;43.406;3.698;2023-06-24T04:49:28;22.30;94.70
70548;DHT22;58099;43.406;3.698;2023-06-24T04:51:54;22.40;94.70
70548;DHT22;58099;43.406;3.698;2023-06-24T04:54:20;22.30;94.60
70548;DHT22;58099;43.406;3.698;2023-06-24T04:56:45;22.30;94.60
70548;DHT22;58099;43.406;3.698;2023-06-24T04:59:13;22.30;94.70
70548;DHT22;58099;43.406;3.698;2023-06-24T05:01:39;22.30;94.70
70548;DHT22;58099;43.406;3.698;2023-06-24T05:04:05;22.40;94.70
70548;DHT22;58099;43.406;3.698;2023-06-24T05:06:30;22.40;94.70
70548;DHT22;58099;43.406;3.698;2023-06-24T05:08:56;22.40;94.80
70548;DHT22;58099;43.406;3.698;2023-06-24T05:11:22;22.40;94.80
70548;DHT22;58099;43.406;3.698;2023-06-24T05:13:47;22.40;94.70
70548;DHT22;58099;43.406;3.698;2023-06-24T05:16:13;22.50;94.80
70548;DHT22;58099;43.406;3.698;2023-06-24T05:18:39;22.50;94.90
70548;DHT22;58099;43.406;3.698;2023-06-24T05:21:05;22.50;94.90
70548;DHT22;58099;43.406;3.698;2023-06-24T05:23:30;22.50;94.80
70548;DHT22;58099;43.406;3.698;2023-06-24T05:25:56;22.50;94.70
70548;DHT22;58099;43.406;3.698;2023-06-24T05:28:22;22.60;94.30
70548;DHT22;58099;43.406;3.698;2023-06-24T05:30:47;22.70;94.20
70548;DHT22;58099;43.406;3.698;2023-06-24T05:33:13;22.80;94.20
70548;DHT22;58099;43.406;3.698;2023-06-24T05:35:38;22.90;94.20
70548;DHT22;58099;43.406;3.698;2023-06-24T05:38:07;22.90;94.20
70548;DHT22;58099;43.406;3.698;2023-06-24T05:40:32;23.00;94.10
70548;DHT22;58099;43.406;3.698;2023-06-24T05:42:58;23.00;94.20
70548;DHT22;58099;43.406;3.698;2023-06-24T05:45:24;23.00;94.20
70548;DHT22;58099;43.406;3.698;2023-06-24T05:47:50;23.10;94.20
70548;DHT22;58099;43.406;3.698;2023-06-24T05:50:15;23.20;94.10
70548;DHT22;58099;43.406;3.698;2023-06-24T05:52:41;23.30;94.00
70548;DHT22;58099;43.406;3.698;2023-06-24T05:55:07;23.30;93.80
70548;DHT22;58099;43.406;3.698;2023-06-24T05:57:32;23.40;93.50
70548;DHT22;58099;43.406;3.698;2023-06-24T05:59:58;23.40;93.40
70548;DHT22;58099;43.406;3.698;2023-06-24T06:02:24;23.50;93.30
70548;DHT22;58099;43.406;3.698;2023-06-24T06:04:50;23.60;93.40
70548;DHT22;58099;43.406;3.698;2023-06-24T06:07:16;23.70;93.40
70548;DHT22;58099;43.406;3.698;2023-06-24T06:09:42;23.70;93.70
70548;DHT22;58099;43.406;3.698;2023-06-24T06:12:08;23.70;93.50
70548;DHT22;58099;43.406;3.698;2023-06-24T06:14:34;23.80;93.30
70548;DHT22;58099;43.406;3.698;2023-06-24T06:17:00;23.90;93.20
70548;DHT22;58099;43.406;3.698;2023-06-24T06:19:25;23.90;93.00
70548;DHT22;58099;43.406;3.698;2023-06-24T06:21:51;24.00;93.10
70548;DHT22;58099;43.406;3.698;2023-06-24T06:24:17;24.10;93.20
70548;DHT22;58099;43.406;3.698;2023-06-24T06:26:43;24.10;93.20
70548;DHT22;58099;43.406;3.698;2023-06-24T06:29:10;24.30;93.20
70548;DHT22;58099;43.406;3.698;2023-06-24T06:31:36;24.30;92.90
70548;DHT22;58099;43.406;3.698;2023-06-24T06:34:02;24.40;92.90
70548;DHT22;58099;43.406;3.698;2023-06-24T06:36:28;24.50;92.90
70548;DHT22;58099;43.406;3.698;2023-06-24T06:38:54;24.60;92.80
70548;DHT22;58099;43.406;3.698;2023-06-24T06:41:19;24.70;92.80
70548;DHT22;58099;43.406;3.698;2023-06-24T06:43:53;24.80;92.60
70548;DHT22;58099;43.406;3.698;2023-06-24T06:46:19;24.90;92.30
70548;DHT22;58099;43.406;3.698;2023-06-24T06:48:45;25.00;92.20
70548;DHT22;58099;43.406;3.698;2023-06-24T06:51:12;25.00;92.10
70548;DHT22;58099;43.406;3.698;2023-06-24T06:53:37;25.10;92.00
70548;DHT22;58099;43.406;3.698;2023-06-24T06:56:03;25.30;91.70
70548;DHT22;58099;43.406;3.698;2023-06-24T06:58:29;25.50;91.80
70548;DHT22;58099;43.406;3.698;2023-06-24T07:00:55;25.50;91.60
70548;DHT22;58099;43.406;3.698;2023-06-24T07:03:20;25.60;91.30
70548;DHT22;58099;43.406;3.698;2023-06-24T07:05:47;25.70;91.20
70548;DHT22;58099;43.406;3.698;2023-06-24T07:08:15;25.80;91.20
70548;DHT22;58099;43.406;3.698;2023-06-24T07:10:41;25.80;91.20
70548;DHT22;58099;43.406;3.698;2023-06-24T07:13:07;26.00;91.00
70548;DHT22;58099;43.406;3.698;2023-06-24T07:15:32;26.10;91.00
70548;DHT22;58099;43.406;3.698;2023-06-24T07:17:58;26.20;90.80
70548;DHT22;58099;43.406;3.698;2023-06-24T07:20:24;26.20;90.80
70548;DHT22;58099;43.406;3.698;2023-06-24T07:22:50;26.40;91.10
70548;DHT22;58099;43.406;3.698;2023-06-24T07:25:15;26.50;90.80
70548;DHT22;58099;43.406;3.698;2023-06-24T07:27:41;26.60;90.80
70548;DHT22;58099;43.406;3.698;2023-06-24T07:30:07;26.80;90.90
70548;DHT22;58099;43.406;3.698;2023-06-24T07:32:34;26.90;90.90
70548;DHT22;58099;43.406;3.698;2023-06-24T07:34:59;26.90;90.70
70548;DHT22;58099;43.406;3.698;2023-06-24T07:37:25;27.00;90.60
70548;DHT22;58099;43.406;3.698;2023-06-24T07:39:51;27.20;90.60
70548;DHT22;58099;43.406;3.698;2023-06-24T07:42:17;27.40;90.20
70548;DHT22;58099;43.406;3.698;2023-06-24T07:44:48;27.70;90.30
70548;DHT22;58099;43.406;3.698;2023-06-24T07:47:14;27.90;90.00
70548;DHT22;58099;43.406;3.698;2023-06-24T07:49:40;28.20;88.90
70548;DHT22;58099;43.406;3.698;2023-06-24T07:52:06;28.60;90.00
70548;DHT22;58099;43.406;3.698;2023-06-24T07:54:32;28.60;87.80
70548;DHT22;58099;43.406;3.698;2023-06-24T07:56:57;28.70;87.30
70548;DHT22;58099;43.406;3.698;2023-06-24T07:59:23;28.80;87.10
70548;DHT22;58099;43.406;3.698;2023-06-24T08:01:50;29.20;87.40
70548;DHT22;58099;43.406;3.698;2023-06-24T08:04:15;29.20;86.00
70548;DHT22;58099;43.406;3.698;2023-06-24T08:06:41;29.40;85.40
70548;DHT22;58099;43.406;3.698;2023-06-24T08:09:07;29.40;80.80
70548;DHT22;58099;43.406;3.698;2023-06-24T08:11:33;29.50;79.50
70548;DHT22;58099;43.406;3.698;2023-06-24T08:13:58;29.80;79.30
70548;DHT22;58099;43.406;3.698;2023-06-24T08:16:24;30.20;80.30
70548;DHT22;58099;43.406;3.698;2023-06-24T08:18:50;30.40;79.50
70548;DHT22;58099;43.406;3.698;2023-06-24T08:21:16;30.50;77.90
70548;DHT22;58099;43.406;3.698;2023-06-24T08:23:42;30.50;78.40
70548;DHT22;58099;43.406;3.698;2023-06-24T08:26:07;30.40;78.90
70548;DHT22;58099;43.406;3.698;2023-06-24T08:28:33;30.80;78.40
70548;DHT22;58099;43.406;3.698;2023-06-24T08:30:59;31.00;77.40
70548;DHT22;58099;43.406;3.698;2023-06-24T08:33:25;30.90;77.20
70548;DHT22;58099;43.406;3.698;2023-06-24T08:35:50;30.90;77.30
70548;DHT22;58099;43.406;3.698;2023-06-24T08:38:16;30.90;76.30
70548;DHT22;58099;43.406;3.698;2023-06-24T08:40:42;30.90;76.90
70548;DHT22;58099;43.406;3.698;2023-06-24T08:43:10;31.00;76.30
70548;DHT22;58099;43.406;3.698;2023-06-24T08:45:35;31.00;75.90
70548;DHT22;58099;43.406;3.698;2023-06-24T08:48:02;30.90;76.90
70548;DHT22;58099;43.406;3.698;2023-06-24T08:50:36;31.20;75.90
70548;DHT22;58099;43.406;3.698;2023-06-24T08:53:07;31.50;76.80
70548;DHT22;58099;43.406;3.698;2023-06-24T08:55:39;31.50;76.00
70548;DHT22;58099;43.406;3.698;2023-06-24T08:58:05;31.70;76.80
70548;DHT22;58099;43.406;3.698;2023-06-24T09:00:31;32.20;75.70
70548;DHT22;58099;43.406;3.698;2023-06-24T09:02:57;32.20;75.40
70548;DHT22;58099;43.406;3.698;2023-06-24T09:05:23;32.40;74.60
70548;DHT22;58099;43.406;3.698;2023-06-24T09:07:49;32.40;75.60
70548;DHT22;58099;43.406;3.698;2023-06-24T09:10:35;32.60;74.10
70548;DHT22;58099;43.406;3.698;2023-06-24T09:13:01;32.60;74.70
70548;DHT22;58099;43.406;3.698;2023-06-24T09:15:35;32.60;73.80
70548;DHT22;58099;43.406;3.698;2023-06-24T09:18:01;32.60;74.40
70548;DHT22;58099;43.406;3.698;2023-06-24T09:20:27;32.80;74.60
70548;DHT22;58099;43.406;3.698;2023-06-24T09:23:01;33.10;75.20
70548;DHT22;58099;43.406;3.698;2023-06-24T09:25:28;33.30;73.80
70548;DHT22;58099;43.406;3.698;2023-06-24T09:27:54;33.10;73.70
70548;DHT22;58099;43.406;3.698;2023-06-24T09:30:22;33.00;73.40
70548;DHT22;58099;43.406;3.698;2023-06-24T09:32:49;33.10;73.90
70548;DHT22;58099;43.406;3.698;2023-06-24T09:35:19;33.20;73.50
70548;DHT22;58099;43.406;3.698;2023-06-24T09:37:54;33.30;73.20
70548;DHT22;58099;43.406;3.698;2023-06-24T09:40:23;33.40;75.00
70548;DHT22;58099;43.406;3.698;2023-06-24T09:42:51;33.60;73.40
70548;DHT22;58099;43.406;3.698;2023-06-24T09:45:25;33.60;73.00
70548;DHT22;58099;43.406;3.698;2023-06-24T09:47:52;33.80;73.20
70548;DHT22;58099;43.406;3.698;2023-06-24T09:50:18;33.80;72.80
70548;DHT22;58099;43.406;3.698;2023-06-24T09:52:45;34.00;73.00
70548;DHT22;58099;43.406;3.698;2023-06-24T09:55:15;34.20;73.60
70548;DHT22;58099;43.406;3.698;2023-06-24T09:57:45;34.10;73.60
70548;DHT22;58099;43.406;3.698;2023-06-24T10:00:13;34.10;73.40
70548;DHT22;58099;43.406;3.698;2023-06-24T10:02:40;34.40;73.70
70548;DHT22;58099;43.406;3.698;2023-06-24T10:05:06;34.40;73.30
70548;DHT22;58099;43.406;3.698;2023-06-24T10:07:34;34.60;73.30
70548;DHT22;58099;43.406;3.698;2023-06-24T10:10:02;34.70;72.60
70548;DHT22;58099;43.406;3.698;2023-06-24T10:12:28;35.00;73.40
70548;DHT22;58099;43.406;3.698;2023-06-24T10:14:55;34.90;72.90
70548;DHT22;58099;43.406;3.698;2023-06-24T10:17:20;34.70;73.00
70548;DHT22;58099;43.406;3.698;2023-06-24T10:19:46;34.80;71.80
70548;DHT22;58099;43.406;3.698;2023-06-24T10:22:12;34.90;73.00
70548;DHT22;58099;43.406;3.698;2023-06-24T10:24:41;35.10;71.90
70548;DHT22;58099;43.406;3.698;2023-06-24T10:27:21;35.40;72.90
70548;DHT22;58099;43.406;3.698;2023-06-24T10:29:54;35.40;70.90
70548;DHT22;58099;43.406;3.698;2023-06-24T10:32:23;35.70;72.00
70548;DHT22;58099;43.406;3.698;2023-06-24T10:34:56;36.30;71.20
70548;DHT22;58099;43.406;3.698;2023-06-24T10:37:24;35.90;70.60
70548;DHT22;58099;43.406;3.698;2023-06-24T10:39:54;36.00;70.00
70548;DHT22;58099;43.406;3.698;2023-06-24T10:44:50;36.20;70.20
70548;DHT22;58099;43.406;3.698;2023-06-24T10:47:17;36.10;70.60
70548;DHT22;58099;43.406;3.698;2023-06-24T10:49:43;36.20;70.20
70548;DHT22;58099;43.406;3.698;2023-06-24T10:52:09;36.30;69.10
70548;DHT22;58099;43.406;3.698;2023-06-24T10:54:40;36.40;69.40
70548;DHT22;58099;43.406;3.698;2023-06-24T10:57:07;36.80;69.90
70548;DHT22;58099;43.406;3.698;2023-06-24T10:59:46;36.90;68.90
70548;DHT22;58099;43.406;3.698;2023-06-24T11:02:17;36.60;69.00
70548;DHT22;58099;43.406;3.698;2023-06-24T11:07:09;37.10;69.40
70548;DHT22;58099;43.406;3.698;2023-06-24T11:09:34;37.10;68.80
70548;DHT22;58099;43.406;3.698;2023-06-24T11:12:03;37.20;69.00
70548;DHT22;58099;43.406;3.698;2023-06-24T11:14:28;37.30;68.80
70548;DHT22;58099;43.406;3.698;2023-06-24T11:16:54;37.90;68.80
70548;DHT22;58099;43.406;3.698;2023-06-24T11:19:20;37.40;68.20
70548;DHT22;58099;43.406;3.698;2023-06-24T11:21:45;37.20;68.10
70548;DHT22;58099;43.406;3.698;2023-06-24T11:24:11;37.20;67.10
70548;DHT22;58099;43.406;3.698;2023-06-24T11:26:38;37.20;69.70
70548;DHT22;58099;43.406;3.698;2023-06-24T11:29:10;37.50;67.90
70548;DHT22;58099;43.406;3.698;2023-06-24T11:31:36;37.70;67.40
70548;DHT22;58099;43.406;3.698;2023-06-24T11:34:03;37.90;67.60
70548;DHT22;58099;43.406;3.698;2023-06-24T11:36:29;37.90;68.70
70548;DHT22;58099;43.406;3.698;2023-06-24T11:38:55;37.80;67.60
70548;DHT22;58099;43.406;3.698;2023-06-24T11:41:21;38.10;66.70
70548;DHT22;58099;43.406;3.698;2023-06-24T11:43:47;38.10;67.40
70548;DHT22;58099;43.406;3.698;2023-06-24T11:46:28;38.20;65.80
70548;DHT22;58099;43.406;3.698;2023-06-24T11:49:09;38.20;65.60
70548;DHT22;58099;43.406;3.698;2023-06-24T11:51:36;38.30;65.90
70548;DHT22;58099;43.406;3.698;2023-06-24T11:54:04;38.10;66.50
70548;DHT22;58099;43.406;3.698;2023-06-24T11:56:54;37.40;66.50
70548;DHT22;58099;43.406;3.698;2023-06-24T11:59:23;36.30;67.40
70548;DHT22;58099;43.406;3.698;2023-06-24T12:01:54;35.90;68.30
70548;DHT22;58099;43.406;3.698;2023-06-24T12:04:20;36.70;69.00
70548;DHT22;58099;43.406;3.698;2023-06-24T12:06:46;37.00;68.00
70548;DHT22;58099;43.406;3.698;2023-06-24T12:09:12;37.20;69.20
70548;DHT22;58099;43.406;3.698;2023-06-24T12:11:38;36.60;67.80
70548;DHT22;58099;43.406;3.698;2023-06-24T12:14:05;36.20;69.10
70548;DHT22;58099;43.406;3.698;2023-06-24T12:16:31;36.10;71.20
70548;DHT22;58099;43.406;3.698;2023-06-24T12:18:56;35.70;71.50
70548;DHT22;58099;43.406;3.698;2023-06-24T12:21:22;36.30;70.10
70548;DHT22;58099;43.406;3.698;2023-06-24T12:23:48;36.80;71.10
70548;DHT22;58099;43.406;3.698;2023-06-24T12:26:14;36.00;68.20
70548;DHT22;58099;43.406;3.698;2023-06-24T12:28:39;35.70;68.30
70548;DHT22;58099;43.406;3.698;2023-06-24T12:31:05;35.40;69.30
70548;DHT22;58099;43.406;3.698;2023-06-24T12:33:31;34.40;71.90
70548;DHT22;58099;43.406;3.698;2023-06-24T12:35:56;34.50;74.30
70548;DHT22;58099;43.406;3.698;2023-06-24T12:38:22;34.80;72.90
70548;DHT22;58099;43.406;3.698;2023-06-24T12:40:48;35.00;72.30
70548;DHT22;58099;43.406;3.698;2023-06-24T12:43:14;35.20;72.30
70548;DHT22;58099;43.406;3.698;2023-06-24T12:45:41;35.00;69.90
70548;DHT22;58099;43.406;3.698;2023-06-24T12:48:10;34.50;70.00
70548;DHT22;58099;43.406;3.698;2023-06-24T12:50:36;34.80;70.00
70548;DHT22;58099;43.406;3.698;2023-06-24T12:53:02;35.30;70.60
70548;DHT22;58099;43.406;3.698;2023-06-24T12:55:29;35.20;72.00
70548;DHT22;58099;43.406;3.698;2023-06-24T12:57:55;34.90;69.10
70548;DHT22;58099;43.406;3.698;2023-06-24T13:00:21;34.60;69.10
70548;DHT22;58099;43.406;3.698;2023-06-24T13:02:48;34.70;70.30
70548;DHT22;58099;43.406;3.698;2023-06-24T13:05:14;34.50;71.50
70548;DHT22;58099;43.406;3.698;2023-06-24T13:07:40;34.30;72.00
70548;DHT22;58099;43.406;3.698;2023-06-24T13:10:06;33.70;73.30
70548;DHT22;58099;43.406;3.698;2023-06-24T13:12:32;33.20;73.90
70548;DHT22;58099;43.406;3.698;2023-06-24T13:14:58;33.40;72.80
70548;DHT22;58099;43.406;3.698;2023-06-24T13:17:24;33.30;72.20
70548;DHT22;58099;43.406;3.698;2023-06-24T13:19:51;33.60;71.50
70548;DHT22;58099;43.406;3.698;2023-06-24T13:22:16;33.70;71.90
70548;DHT22;58099;43.406;3.698;2023-06-24T13:24:42;33.80;71.80
70548;DHT22;58099;43.406;3.698;2023-06-24T13:27:08;33.40;73.20
70548;DHT22;58099;43.406;3.698;2023-06-24T13:29:34;33.00;72.60
70548;DHT22;58099;43.406;3.698;2023-06-24T13:32:00;33.00;73.30
70548;DHT22;58099;43.406;3.698;2023-06-24T13:34:26;33.10;72.30
70548;DHT22;58099;43.406;3.698;2023-06-24T13:36:51;32.90;72.70
70548;DHT22;58099;43.406;3.698;2023-06-24T13:39:18;33.00;72.20
70548;DHT22;58099;43.406;3.698;2023-06-24T13:41:46;33.00;73.40
70548;DHT22;58099;43.406;3.698;2023-06-24T13:44:12;32.90;73.20
70548;DHT22;58099;43.406;3.698;2023-06-24T13:46:38;32.80;73.30
70548;DHT22;58099;43.406;3.698;2023-06-24T13:49:04;33.00;72.90
70548;DHT22;58099;43.406;3.698;2023-06-24T13:51:30;32.80;72.70
70548;DHT22;58099;43.406;3.698;2023-06-24T13:53:56;32.60;72.80
70548;DHT22;58099;43.406;3.698;2023-06-24T13:56:23;32.80;74.90
70548;DHT22;58099;43.406;3.698;2023-06-24T13:58:50;32.80;74.60
70548;DHT22;58099;43.406;3.698;2023-06-24T14:01:16;32.60;74.70
70548;DHT22;58099;43.406;3.698;2023-06-24T14:03:42;32.70;74.40
70548;DHT22;58099;43.406;3.698;2023-06-24T14:06:09;31.80;80.70
70548;DHT22;58099;43.406;3.698;2023-06-24T14:08:35;32.00;82.10
70548;DHT22;58099;43.406;3.698;2023-06-24T14:11:02;31.70;82.40
70548;DHT22;58099;43.406;3.698;2023-06-24T14:13:28;31.50;86.00
70548;DHT22;58099;43.406;3.698;2023-06-24T14:15:55;30.10;90.90
70548;DHT22;58099;43.406;3.698;2023-06-24T14:18:21;28.50;95.00
70548;DHT22;58099;43.406;3.698;2023-06-24T14:20:47;28.50;95.60
70548;DHT22;58099;43.406;3.698;2023-06-24T14:23:13;28.70;94.00
70548;DHT22;58099;43.406;3.698;2023-06-24T14:25:38;28.60;90.50
70548;DHT22;58099;43.406;3.698;2023-06-24T14:28:05;29.00;91.30
70548;DHT22;58099;43.406;3.698;2023-06-24T14:30:31;29.60;87.10
70548;DHT22;58099;43.406;3.698;2023-06-24T14:32:57;29.70;86.10
70548;DHT22;58099;43.406;3.698;2023-06-24T14:35:22;29.70;83.40
70548;DHT22;58099;43.406;3.698;2023-06-24T14:37:48;29.90;83.20
70548;DHT22;58099;43.406;3.698;2023-06-24T14:40:14;30.10;82.40
70548;DHT22;58099;43.406;3.698;2023-06-24T14:42:40;29.80;83.10
70548;DHT22;58099;43.406;3.698;2023-06-24T14:45:05;29.40;84.80
70548;DHT22;58099;43.406;3.698;2023-06-24T14:47:31;29.50;84.10
70548;DHT22;58099;43.406;3.698;2023-06-24T14:49:57;29.50;82.60
70548;DHT22;58099;43.406;3.698;2023-06-24T14:52:23;29.30;82.10
70548;DHT22;58099;43.406;3.698;2023-06-24T14:54:49;29.30;81.30
70548;DHT22;58099;43.406;3.698;2023-06-24T14:57:15;29.20;80.90
70548;DHT22;58099;43.406;3.698;2023-06-24T14:59:43;29.20;81.60
70548;DHT22;58099;43.406;3.698;2023-06-24T15:02:09;29.40;81.00
70548;DHT22;58099;43.406;3.698;2023-06-24T15:04:37;29.30;82.20
70548;DHT22;58099;43.406;3.698;2023-06-24T15:07:04;29.40;81.70
70548;DHT22;58099;43.406;3.698;2023-06-24T15:09:30;29.50;81.10
70548;DHT22;58099;43.406;3.698;2023-06-24T15:11:55;29.30;79.80
70548;DHT22;58099;43.406;3.698;2023-06-24T15:14:21;29.30;80.60
70548;DHT22;58099;43.406;3.698;2023-06-24T15:16:47;29.30;80.30
70548;DHT22;58099;43.406;3.698;2023-06-24T15:19:12;29.40;80.20
70548;DHT22;58099;43.406;3.698;2023-06-24T15:21:38;29.30;80.40
70548;DHT22;58099;43.406;3.698;2023-06-24T15:24:04;29.20;79.90
70548;DHT22;58099;43.406;3.698;2023-06-24T15:26:30;29.10;80.90
70548;DHT22;58099;43.406;3.698;2023-06-24T15:28:55;29.10;80.30
70548;DHT22;58099;43.406;3.698;2023-06-24T15:31:21;29.30;80.50
70548;DHT22;58099;43.406;3.698;2023-06-24T15:33:46;29.30;80.30
70548;DHT22;58099;43.406;3.698;2023-06-24T15:36:12;29.40;80.50
70548;DHT22;58099;43.406;3.698;2023-06-24T15:38:38;29.40;81.10
70548;DHT22;58099;43.406;3.698;2023-06-24T15:41:04;29.30;80.20
70548;DHT22;58099;43.406;3.698;2023-06-24T15:43:32;29.20;79.40
70548;DHT22;58099;43.406;3.698;2023-06-24T15:45:58;29.10;80.70
70548;DHT22;58099;43.406;3.698;2023-06-24T15:48:24;29.10;80.50